createdAt,value
2022-12-04T00:00:15.728Z,34.90
2022-12-04T00:02:47.715Z,35.40
2022-12-04T00:05:19.838Z,36.75
2022-12-04T00:07:51.886Z,36.72
2022-12-04T00:10:23.900Z,34.85
2022-12-04T00:12:55.907Z,35.53
2022-12-04T00:15:27.846Z,33.75
2022-12-04T00:17:59.777Z,35.00
2022-12-04T00:20:31.734Z,40.95
2022-12-04T00:23:03.816Z,38.70
2022-12-04T00:25:40.903Z,35.15
2022-12-04T00:28:13.347Z,33.97
2022-12-04T00:30:46.272Z,33.22
2022-12-04T00:33:18.188Z,33.83
2022-12-04T00:35:58.908Z,35.22
2022-12-04T00:38:31.073Z,33.08
2022-12-04T00:41:03.989Z,33.13
2022-12-04T00:43:36.002Z,33.30
2022-12-04T00:46:09.283Z,33.17
2022-12-04T00:48:42.402Z,34.70
2022-12-04T00:51:21.911Z,34.78
2022-12-04T00:53:54.713Z,33.88
2022-12-04T00:56:28.569Z,33.75
2022-12-04T00:59:01.791Z,35.95
2022-12-04T01:01:33.818Z,33.85
2022-12-04T01:04:06.060Z,32.92
2022-12-04T01:06:38.021Z,34.40
2022-12-04T01:09:09.950Z,36.40
2022-12-04T01:11:41.948Z,33.08
2022-12-04T01:14:13.913Z,35.63
2022-12-04T01:16:47.351Z,34.13
2022-12-04T01:19:19.492Z,40.97
2022-12-04T01:21:52.101Z,36.60
2022-12-04T01:24:24.031Z,40.40
2022-12-04T01:26:56.068Z,33.70
2022-12-04T01:29:28.126Z,33.65
2022-12-04T01:32:00.222Z,33.65
2022-12-04T01:34:32.329Z,34.33
2022-12-04T01:37:04.433Z,33.38
2022-12-04T01:39:37.078Z,32.40
2022-12-04T01:42:14.458Z,34.97
2022-12-04T01:45:45.238Z,34.10
2022-12-04T01:48:49.598Z,33.33
2022-12-04T01:51:31.117Z,32.90
2022-12-04T01:54:11.014Z,33.15
2022-12-04T01:56:51.653Z,30.42
2022-12-04T01:59:28.421Z,33.58
2022-12-04T02:02:09.463Z,33.70
2022-12-04T02:04:42.785Z,33.95
2022-12-04T02:07:14.869Z,31.85
2022-12-04T02:09:53.827Z,34.08
2022-12-04T02:12:34.917Z,34.20
2022-12-04T02:15:24.209Z,32.83
2022-12-04T02:18:28.475Z,35.87
2022-12-04T02:21:36.661Z,33.92
2022-12-04T02:24:36.664Z,33.17
2022-12-04T02:27:41.781Z,32.83
2022-12-04T02:30:14.813Z,32.65
2022-12-04T02:33:05.812Z,35.85
2022-12-04T02:35:47.316Z,34.38
2022-12-04T02:38:28.948Z,30.60
2022-12-04T02:41:03.136Z,35.63
2022-12-04T02:43:47.704Z,36.17
2022-12-04T02:46:39.933Z,34.55
2022-12-04T02:49:21.390Z,34.55
2022-12-04T02:51:55.383Z,36.10
2022-12-04T02:54:41.755Z,35.17
2022-12-04T02:57:20.692Z,34.00
2022-12-04T02:59:57.061Z,37.22
2022-12-04T03:02:49.446Z,36.45
2022-12-04T03:05:30.644Z,37.60
2022-12-04T03:08:08.698Z,34.38
2022-12-04T03:10:49.156Z,35.83
2022-12-04T03:14:00.163Z,35.83
2022-12-04T03:16:40.411Z,37.28
2022-12-04T03:19:37.937Z,34.33
2022-12-04T03:22:15.825Z,32.67
2022-12-04T03:24:55.873Z,34.88
2022-12-04T03:27:56.672Z,34.03
2022-12-04T03:30:38.116Z,35.72
2022-12-04T03:33:26.549Z,35.45
2022-12-04T03:36:16.980Z,34.85
2022-12-04T03:39:11.148Z,34.92
2022-12-04T03:41:56.926Z,34.40
2022-12-04T03:44:41.255Z,35.08
2022-12-04T03:47:28.802Z,35.95
2022-12-04T03:50:09.834Z,34.78
2022-12-04T03:53:17.727Z,37.20
2022-12-04T03:56:06.753Z,36.05
2022-12-04T03:58:44.565Z,36.45
2022-12-04T04:01:22.588Z,36.70
2022-12-04T04:03:58.006Z,36.28
2022-12-04T04:06:41.253Z,36.38
2022-12-04T04:09:23.005Z,36.78
2022-12-04T04:12:05.695Z,35.10
2022-12-04T04:14:59.485Z,34.75
2022-12-04T04:18:07.567Z,34.05
2022-12-04T04:21:03.660Z,34.53
2022-12-04T04:24:02.427Z,34.88
2022-12-04T04:26:39.452Z,32.95
2022-12-04T04:29:12.196Z,34.90
2022-12-04T04:32:25.287Z,35.05
2022-12-04T04:35:15.653Z,33.38
2022-12-04T04:38:09.089Z,34.85
2022-12-04T04:41:09.301Z,33.45
2022-12-04T04:44:03.628Z,34.65
2022-12-04T04:46:40.696Z,34.55
2022-12-04T04:49:14.899Z,36.05
2022-12-04T04:51:48.241Z,36.45
2022-12-04T04:54:21.385Z,35.28
2022-12-04T04:56:53.353Z,36.20
2022-12-04T04:59:25.413Z,35.05
2022-12-04T05:01:57.565Z,36.83
2022-12-04T05:04:29.657Z,33.83
2022-12-04T05:07:01.635Z,36.03
2022-12-04T05:09:38.240Z,35.95
2022-12-04T05:12:13.092Z,34.38
2022-12-04T05:14:47.018Z,33.35
2022-12-04T05:17:19.035Z,33.67
2022-12-04T05:19:54.845Z,33.15
2022-12-04T05:22:35.937Z,34.13
2022-12-04T05:25:08.531Z,37.08
2022-12-04T05:27:40.592Z,32.38
2022-12-04T05:30:13.264Z,33.80
2022-12-04T05:32:45.252Z,34.15
2022-12-04T05:35:17.442Z,33.63
2022-12-04T05:37:49.426Z,32.08
2022-12-04T05:40:21.364Z,33.80
2022-12-04T05:42:53.299Z,33.15
2022-12-04T05:45:25.219Z,32.55
2022-12-04T05:47:57.137Z,29.85
2022-12-04T05:50:29.070Z,31.25
2022-12-04T05:53:00.980Z,32.65
2022-12-04T05:55:32.958Z,30.88
2022-12-04T05:58:05.048Z,32.28
2022-12-04T06:00:37.090Z,31.38
2022-12-04T06:03:09.082Z,31.42
2022-12-04T06:05:41.097Z,32.08
2022-12-04T06:08:13.501Z,32.25
2022-12-04T06:10:45.572Z,31.35
2022-12-04T06:13:17.613Z,32.55
2022-12-04T06:15:49.533Z,31.20
2022-12-04T06:18:21.481Z,29.58
2022-12-04T06:20:53.459Z,31.58
2022-12-04T06:23:25.524Z,31.75
2022-12-04T06:26:02.170Z,34.08
2022-12-04T06:28:37.722Z,32.67
2022-12-04T06:31:13.864Z,29.92
2022-12-04T06:33:46.403Z,32.53
2022-12-04T06:36:21.226Z,30.70
2022-12-04T06:38:56.874Z,31.17
2022-12-04T06:41:29.482Z,29.95
2022-12-04T06:44:01.588Z,32.65
2022-12-04T06:46:35.040Z,31.35
2022-12-04T06:49:07.113Z,32.40
2022-12-04T06:51:40.858Z,32.78
2022-12-04T06:54:12.987Z,32.88
2022-12-04T06:56:45.020Z,32.67
2022-12-04T06:59:17.297Z,32.58
2022-12-04T07:01:49.419Z,31.25
2022-12-04T07:04:21.551Z,32.83
2022-12-04T07:06:54.677Z,31.27
2022-12-04T07:09:26.629Z,30.70
2022-12-04T07:11:58.636Z,31.70
2022-12-04T07:14:30.682Z,30.70
2022-12-04T07:17:02.756Z,31.33
2022-12-04T07:19:34.790Z,33.20
2022-12-04T07:22:08.990Z,31.35
2022-12-04T07:24:40.942Z,32.15
2022-12-04T07:27:12.917Z,31.92
2022-12-04T07:29:44.823Z,32.80
2022-12-04T07:32:16.918Z,34.38
2022-12-04T07:34:48.930Z,30.92
2022-12-04T07:37:20.866Z,32.75
2022-12-04T07:39:53.291Z,33.75
2022-12-04T07:42:25.430Z,31.90
2022-12-04T07:44:57.420Z,31.10
2022-12-04T07:47:29.390Z,31.92
2022-12-04T07:50:01.440Z,31.73
2022-12-04T07:52:39.831Z,28.55
2022-12-04T07:55:11.778Z,32.92
2022-12-04T07:57:43.737Z,30.10
2022-12-04T08:00:16.415Z,32.92
2022-12-04T08:02:49.963Z,31.00
2022-12-04T08:05:22.050Z,31.27
2022-12-04T08:07:54.484Z,31.42
2022-12-04T08:10:26.466Z,29.77
2022-12-04T08:12:58.395Z,31.60
2022-12-04T08:15:30.320Z,31.92
2022-12-04T08:18:02.298Z,28.77
2022-12-04T08:20:34.244Z,29.50
2022-12-04T08:23:06.205Z,31.10
2022-12-04T08:25:41.737Z,28.77
2022-12-04T08:28:13.810Z,30.95
2022-12-04T08:30:45.790Z,31.90
2022-12-04T08:33:17.957Z,29.42
2022-12-04T08:35:49.914Z,30.77
2022-12-04T08:38:21.873Z,30.45
2022-12-04T08:40:53.839Z,29.27
2022-12-04T08:43:25.802Z,31.08
2022-12-04T08:46:05.008Z,32.33
2022-12-04T08:48:37.650Z,29.83
2022-12-04T08:51:17.125Z,30.85
2022-12-04T08:53:58.740Z,31.40
2022-12-04T08:56:33.475Z,29.77
2022-12-04T08:59:06.578Z,29.35
2022-12-04T09:01:39.463Z,29.15
2022-12-04T09:04:11.583Z,29.35
2022-12-04T09:06:43.633Z,28.50
2022-12-04T09:09:16.857Z,30.40
2022-12-04T09:11:48.927Z,30.33
2022-12-04T09:14:25.978Z,27.50
2022-12-04T09:16:58.126Z,29.70
2022-12-04T09:19:31.560Z,29.50
2022-12-04T09:22:03.873Z,29.05
2022-12-04T09:24:35.805Z,29.63
2022-12-04T09:27:14.285Z,28.63
2022-12-04T09:29:46.924Z,28.88
2022-12-04T09:32:19.593Z,29.80
2022-12-04T09:34:52.977Z,29.33
2022-12-04T09:37:25.068Z,26.35
2022-12-04T09:39:57.199Z,29.45
2022-12-04T09:42:43.779Z,28.90
2022-12-04T09:45:22.964Z,32.45
2022-12-04T09:47:59.384Z,29.00
2022-12-04T09:50:44.419Z,30.88
2022-12-04T09:53:47.558Z,30.10
2022-12-04T09:56:21.646Z,28.98
2022-12-04T09:59:03.389Z,28.85
2022-12-04T10:02:37.770Z,31.45
2022-12-04T10:05:47.257Z,30.63
2022-12-04T10:08:39.972Z,30.02
2022-12-04T10:12:23.253Z,30.13
2022-12-04T10:15:28.526Z,29.40
2022-12-04T10:18:29.318Z,31.42
2022-12-04T10:21:45.221Z,30.02
2022-12-04T10:24:41.079Z,31.70
2022-12-04T10:27:48.132Z,30.27
2022-12-04T10:30:26.850Z,28.77
2022-12-04T10:33:11.771Z,31.90
2022-12-04T10:35:46.549Z,32.63
2022-12-04T10:38:49.110Z,29.10
2022-12-04T10:41:44.397Z,29.75
2022-12-04T10:44:18.831Z,30.55
2022-12-04T10:46:57.833Z,29.83
2022-12-04T10:49:33.475Z,32.03
2022-12-04T10:52:11.121Z,32.08
2022-12-04T10:54:55.529Z,30.13
2022-12-04T10:57:47.291Z,30.20
2022-12-04T11:00:34.458Z,29.85
2022-12-04T11:03:23.239Z,30.92
2022-12-04T11:06:01.370Z,30.92
2022-12-04T11:08:49.650Z,31.63
2022-12-04T11:11:30.181Z,29.75
2022-12-04T11:14:18.396Z,32.08
2022-12-04T11:17:06.297Z,29.98
2022-12-04T11:19:38.226Z,29.55
2022-12-04T11:22:18.250Z,31.65
2022-12-04T11:24:54.539Z,29.95
2022-12-04T11:27:32.877Z,32.08
2022-12-04T11:30:13.923Z,31.95
2022-12-04T11:32:47.120Z,31.73
2022-12-04T11:35:25.290Z,32.05
2022-12-04T11:38:05.018Z,33.22
2022-12-04T11:40:37.440Z,30.90
2022-12-04T11:43:17.882Z,31.58
2022-12-04T11:45:59.723Z,31.45
2022-12-04T11:48:42.171Z,29.83
2022-12-04T11:51:53.759Z,30.23
2022-12-04T11:55:12.538Z,30.63
2022-12-04T11:58:29.575Z,29.75
2022-12-04T12:01:16.314Z,30.42
2022-12-04T12:04:32.796Z,27.55
2022-12-04T12:07:20.192Z,29.15
2022-12-04T12:10:19.708Z,28.85
2022-12-04T12:13:09.680Z,29.33
2022-12-04T12:16:23.625Z,25.83
2022-12-04T12:19:59.008Z,29.30
2022-12-04T12:23:11.853Z,28.42
2022-12-04T12:26:10.633Z,26.02
2022-12-04T12:29:14.079Z,27.20
2022-12-04T12:32:20.073Z,26.73
2022-12-04T12:34:52.577Z,26.83
2022-12-04T12:37:47.867Z,26.33
2022-12-04T12:40:35.122Z,26.20
2022-12-04T12:43:32.557Z,25.85
2022-12-04T12:46:30.958Z,25.75
2022-12-04T12:49:17.776Z,26.30
2022-12-04T12:52:11.219Z,25.02
2022-12-04T12:54:57.334Z,27.42
2022-12-04T12:57:42.548Z,25.88
2022-12-04T13:00:21.768Z,24.55
2022-12-04T13:03:18.368Z,27.55
2022-12-04T13:05:55.933Z,24.75
2022-12-04T13:08:47.853Z,25.23
2022-12-04T13:11:25.853Z,25.60
2022-12-04T13:14:05.205Z,25.75
2022-12-04T13:16:51.355Z,25.87
2022-12-04T13:19:26.757Z,28.08
2022-12-04T13:22:52.708Z,26.95
2022-12-04T13:25:46.784Z,28.08
2022-12-04T13:28:41.463Z,27.10
2022-12-04T13:31:31.329Z,26.73
2022-12-04T13:34:44.648Z,27.13
2022-12-04T13:38:07.828Z,27.75
2022-12-04T13:40:58.432Z,27.67
2022-12-04T13:43:42.542Z,29.00
2022-12-04T13:46:39.764Z,28.33
2022-12-04T13:49:17.819Z,27.63
2022-12-04T13:51:50.187Z,27.50
2022-12-04T13:54:28.756Z,26.92
2022-12-04T13:57:15.946Z,27.77
2022-12-04T13:59:49.577Z,27.65
2022-12-04T14:02:35.472Z,26.42
2022-12-04T14:05:11.589Z,29.13
2022-12-04T14:08:07.816Z,26.48
2022-12-04T14:10:40.639Z,24.23
2022-12-04T14:13:24.105Z,25.73
2022-12-04T14:16:34.047Z,24.23
2022-12-04T14:19:07.584Z,24.98
2022-12-04T14:21:45.973Z,25.73
2022-12-04T14:24:35.244Z,26.48
2022-12-04T14:27:42.857Z,25.08
2022-12-04T14:30:38.306Z,26.15
2022-12-04T14:33:22.709Z,26.05
2022-12-04T14:36:29.000Z,25.13
2022-12-04T14:39:41.765Z,25.65
2022-12-04T14:42:29.652Z,26.42
2022-12-04T14:45:05.668Z,26.20
2022-12-04T14:47:58.078Z,25.42
2022-12-04T14:50:53.400Z,25.70
2022-12-04T14:54:21.248Z,26.13
2022-12-04T14:57:12.262Z,27.50
2022-12-04T14:59:53.575Z,26.00
2022-12-04T15:02:35.330Z,27.95
2022-12-04T15:05:23.040Z,26.60
2022-12-04T15:08:04.490Z,26.40
2022-12-04T15:10:56.991Z,28.02
2022-12-04T15:13:33.457Z,27.70
2022-12-04T15:16:11.212Z,27.35
2022-12-04T15:18:54.908Z,25.95
2022-12-04T15:21:42.432Z,27.95
2022-12-04T15:24:20.311Z,25.73
2022-12-04T15:26:53.641Z,25.77
2022-12-04T15:29:32.072Z,28.08
2022-12-04T15:32:12.025Z,26.88
2022-12-04T15:34:51.697Z,25.00
2022-12-04T15:37:29.023Z,27.00
2022-12-04T15:40:06.682Z,26.60
2022-12-04T15:42:38.697Z,26.27
2022-12-04T15:45:10.544Z,26.50
2022-12-04T15:47:42.479Z,26.65
2022-12-04T15:50:17.065Z,28.55
2022-12-04T15:53:07.450Z,28.55
2022-12-04T15:55:50.117Z,27.27
2022-12-04T15:58:31.052Z,27.77
2022-12-04T16:01:10.227Z,27.60
2022-12-04T16:03:42.350Z,27.08
2022-12-04T16:06:33.125Z,25.88
2022-12-04T16:09:26.084Z,26.05
2022-12-04T16:12:04.177Z,26.27
2022-12-04T16:14:36.170Z,26.85
2022-12-04T16:17:11.149Z,24.77
2022-12-04T16:19:43.254Z,25.50
2022-12-04T16:22:20.653Z,28.02
2022-12-04T16:24:54.022Z,25.70
2022-12-04T16:27:26.377Z,24.30
2022-12-04T16:29:58.444Z,29.33
2022-12-04T16:32:33.309Z,26.95
2022-12-04T16:35:06.570Z,27.20
2022-12-04T16:37:38.707Z,26.85
2022-12-04T16:40:15.004Z,25.50
2022-12-04T16:42:47.055Z,27.50
2022-12-04T16:45:32.838Z,28.70
2022-12-04T16:48:05.252Z,28.88
2022-12-04T16:50:37.300Z,27.90
2022-12-04T16:53:18.425Z,26.65
2022-12-04T16:55:52.617Z,28.55
2022-12-04T16:58:24.687Z,28.30
2022-12-04T17:00:57.497Z,26.00
2022-12-04T17:03:34.359Z,29.80
2022-12-04T17:06:06.502Z,28.15
2022-12-04T17:08:38.488Z,30.52
2022-12-04T17:11:15.836Z,27.60
2022-12-04T17:13:47.821Z,28.08
2022-12-04T17:16:20.232Z,27.10
2022-12-04T17:18:52.569Z,30.13
2022-12-04T17:21:24.692Z,29.50
2022-12-04T17:23:56.910Z,31.85
2022-12-04T17:26:29.249Z,28.83
2022-12-04T17:29:01.259Z,27.52
2022-12-04T17:31:33.393Z,29.67
2022-12-04T17:34:05.511Z,28.35
2022-12-04T17:36:37.503Z,29.13
2022-12-04T17:39:11.698Z,28.98
2022-12-04T17:41:43.708Z,26.40
2022-12-04T17:44:15.699Z,27.58
2022-12-04T17:46:47.769Z,27.88
2022-12-04T17:49:19.779Z,32.03
2022-12-04T17:51:51.761Z,29.17
2022-12-04T17:54:23.911Z,28.67
2022-12-04T17:56:57.929Z,31.08
2022-12-04T17:59:30.183Z,29.60
2022-12-04T18:02:02.265Z,29.27
2022-12-04T18:04:34.194Z,30.63
2022-12-04T18:07:06.546Z,31.35
2022-12-04T18:09:38.885Z,30.65
2022-12-04T18:12:12.502Z,31.70
2022-12-04T18:14:44.562Z,29.38
2022-12-04T18:17:17.718Z,29.08
2022-12-04T18:19:49.691Z,32.50
2022-12-04T18:22:21.718Z,29.98
2022-12-04T18:24:54.653Z,30.50
2022-12-04T18:27:26.695Z,33.72
2022-12-04T18:30:00.790Z,33.10
2022-12-04T18:32:32.767Z,32.17
2022-12-04T18:35:05.176Z,29.13
2022-12-04T18:37:37.474Z,32.60
2022-12-04T18:40:10.982Z,28.92
2022-12-04T18:42:42.918Z,32.28
2022-12-04T18:45:14.998Z,29.27
2022-12-04T18:47:48.848Z,30.33
2022-12-04T18:50:20.822Z,31.40
2022-12-04T18:52:58.804Z,30.30
2022-12-04T18:55:37.365Z,31.65
2022-12-04T18:58:09.339Z,30.33
2022-12-04T19:00:41.271Z,29.65
2022-12-04T19:03:13.373Z,30.55
2022-12-04T19:05:50.498Z,29.63
2022-12-04T19:08:22.482Z,30.23
2022-12-04T19:10:54.466Z,30.27
2022-12-04T19:13:26.571Z,29.88
2022-12-04T19:15:58.585Z,31.92
2022-12-04T19:18:31.568Z,30.00
2022-12-04T19:21:06.612Z,27.35
2022-12-04T19:23:38.766Z,30.02
2022-12-04T19:26:10.745Z,28.45
2022-12-04T19:28:42.782Z,28.42
2022-12-04T19:31:17.405Z,29.33
2022-12-04T19:33:49.794Z,27.95
2022-12-04T19:36:21.846Z,27.58
2022-12-04T19:38:54.511Z,27.98
2022-12-04T19:41:30.248Z,27.13
2022-12-04T19:44:14.664Z,27.60
2022-12-04T19:46:55.204Z,27.05
2022-12-04T19:49:27.602Z,27.15
2022-12-04T19:51:59.585Z,28.17
2022-12-04T19:54:31.692Z,28.40
2022-12-04T19:57:03.828Z,26.77
2022-12-04T19:59:39.536Z,28.98
2022-12-04T20:02:15.118Z,29.92
2022-12-04T20:04:47.235Z,30.67
2022-12-04T20:07:19.312Z,28.67
2022-12-04T20:09:52.662Z,27.65
2022-12-04T20:12:24.933Z,27.67
2022-12-04T20:14:57.533Z,27.45
2022-12-04T20:17:29.618Z,26.70
2022-12-04T20:20:01.935Z,27.30
2022-12-04T20:22:35.022Z,27.33
2022-12-04T20:25:07.553Z,27.65
2022-12-04T20:27:39.510Z,25.85
2022-12-04T20:30:12.007Z,26.30
2022-12-04T20:32:43.986Z,26.83
2022-12-04T20:35:16.210Z,26.73
2022-12-04T20:37:48.174Z,23.77
2022-12-04T20:40:20.208Z,25.15
2022-12-04T20:42:52.474Z,24.30
2022-12-04T20:45:24.568Z,23.88
2022-12-04T20:47:56.581Z,24.48
2022-12-04T20:50:28.580Z,24.38
2022-12-04T20:53:00.596Z,24.20
2022-12-04T20:55:32.603Z,24.60
2022-12-04T20:58:04.578Z,21.67
2022-12-04T21:00:36.616Z,23.33
2022-12-04T21:03:08.646Z,21.55
2022-12-04T21:05:40.910Z,22.83
2022-12-04T21:08:12.901Z,23.15
2022-12-04T21:10:46.488Z,22.13
2022-12-04T21:13:37.129Z,21.02
2022-12-04T21:16:09.586Z,20.65
2022-12-04T21:18:44.443Z,21.52
2022-12-04T21:21:17.481Z,19.95
2022-12-04T21:23:49.441Z,20.05
2022-12-04T21:26:22.269Z,21.45
2022-12-04T21:28:54.182Z,20.42
2022-12-04T21:31:29.066Z,19.85
2022-12-04T21:34:02.938Z,19.67
2022-12-04T21:36:35.217Z,19.08
2022-12-04T21:39:08.637Z,19.90
2022-12-04T21:41:59.043Z,18.88
2022-12-04T21:47:02.974Z,20.20
2022-12-04T21:49:34.955Z,20.13
2022-12-04T21:52:06.961Z,22.08
2022-12-04T21:54:39.016Z,20.98
2022-12-04T21:57:11.136Z,21.20
2022-12-04T21:59:43.283Z,21.70
2022-12-04T22:02:15.724Z,32.00
2022-12-04T22:04:47.927Z,29.95
2022-12-04T22:07:19.899Z,45.92
2022-12-04T22:09:51.938Z,22.95
2022-12-04T22:12:48.650Z,20.75
2022-12-04T22:15:16.019Z,23.50
2022-12-04T22:17:48.000Z,21.77
2022-12-04T22:20:20.070Z,22.58
2022-12-04T22:22:52.160Z,21.33
2022-12-04T22:25:24.138Z,24.00
2022-12-04T22:27:57.575Z,22.60
2022-12-04T22:30:29.764Z,24.63
2022-12-04T22:33:01.805Z,26.15
2022-12-04T22:35:34.441Z,22.65
2022-12-04T22:38:06.456Z,24.00
2022-12-04T22:40:38.814Z,24.85
2022-12-04T22:43:10.831Z,23.88
2022-12-04T22:45:43.035Z,23.85
2022-12-04T22:48:14.979Z,25.15
2022-12-04T22:51:15.157Z,25.05
2022-12-04T22:53:50.813Z,25.10
2022-12-04T22:56:27.329Z,23.73
2022-12-04T22:59:00.709Z,23.88
2022-12-04T23:01:34.355Z,25.38
2022-12-04T23:04:06.420Z,25.52
2022-12-04T23:06:38.503Z,22.73
2022-12-04T23:09:16.926Z,23.67
2022-12-04T23:11:53.786Z,23.83
2022-12-04T23:14:27.200Z,24.30
2022-12-04T23:16:59.533Z,24.02
2022-12-04T23:19:31.697Z,26.05
2022-12-04T23:22:03.695Z,24.27
2022-12-04T23:24:38.134Z,25.08
2022-12-04T23:27:10.144Z,24.77
2022-12-04T23:29:53.178Z,26.45
2022-12-04T23:32:25.613Z,24.45
2022-12-04T23:34:57.675Z,25.40
2022-12-04T23:37:29.736Z,26.88
2022-12-04T23:40:01.758Z,26.73
2022-12-04T23:42:34.087Z,27.27
2022-12-04T23:45:07.993Z,26.48
2022-12-04T23:47:39.923Z,26.95
2022-12-04T23:50:11.896Z,26.35
2022-12-04T23:52:43.869Z,26.83
2022-12-04T23:55:16.198Z,26.80
2022-12-04T23:57:48.253Z,28.23
